createdAt,value
2018-10-06T00:00:02.064Z,16.39
2018-10-06T00:00:28.258Z,16.46
2018-10-06T00:00:54.412Z,16.51
2018-10-06T00:01:20.551Z,16.43
2018-10-06T00:01:46.711Z,16.43
2018-10-06T00:02:12.862Z,16.41
2018-10-06T00:02:38.993Z,16.35
2018-10-06T00:03:05.130Z,16.41
2018-10-06T00:03:31.261Z,16.41
2018-10-06T00:03:57.788Z,16.42
2018-10-06T00:04:23.993Z,16.36
2018-10-06T00:04:50.112Z,16.41
2018-10-06T00:05:16.246Z,16.35
2018-10-06T00:05:42.381Z,16.29
2018-10-06T00:06:08.536Z,16.31
2018-10-06T00:06:34.673Z,16.32
2018-10-06T00:07:00.821Z,16.31
2018-10-06T00:07:26.958Z,16.32
2018-10-06T00:07:53.100Z,16.31
2018-10-06T00:08:19.229Z,16.26
2018-10-06T00:08:45.361Z,16.29
2018-10-06T00:09:11.498Z,16.28
2018-10-06T00:09:37.647Z,16.23
2018-10-06T00:10:03.790Z,16.26
2018-10-06T00:10:29.911Z,16.31
2018-10-06T00:10:56.055Z,16.28
2018-10-06T00:11:22.235Z,16.29
2018-10-06T00:11:48.400Z,16.26
2018-10-06T00:12:14.528Z,16.24
2018-10-06T00:12:40.665Z,16.17
2018-10-06T00:13:06.795Z,16.12
2018-10-06T00:13:32.941Z,16.15
2018-10-06T00:13:59.287Z,16.2
2018-10-06T00:14:25.420Z,16.08
2018-10-06T00:14:51.564Z,16.23
2018-10-06T00:15:17.718Z,16.09
2018-10-06T00:15:43.877Z,16.09
2018-10-06T00:16:10.028Z,16.12
2018-10-06T00:16:36.151Z,16.15
2018-10-06T00:17:02.293Z,16.12
2018-10-06T00:17:28.425Z,16.15
2018-10-06T00:17:54.594Z,16.09
2018-10-06T00:18:20.726Z,16.15
2018-10-06T00:18:46.851Z,16.1
2018-10-06T00:19:12.983Z,16.08
2018-10-06T00:19:39.145Z,16.1
2018-10-06T00:20:05.313Z,16.13
2018-10-06T00:20:31.441Z,16.1
2018-10-06T00:20:57.587Z,16.13
2018-10-06T00:21:23.718Z,16.09
2018-10-06T00:21:49.855Z,16.09
2018-10-06T00:22:15.985Z,16.02
2018-10-06T00:22:42.166Z,16.01
2018-10-06T00:23:08.315Z,16.01
2018-10-06T00:23:34.439Z,15.98
2018-10-06T00:24:00.609Z,16
2018-10-06T00:24:26.745Z,16.04
2018-10-06T00:24:52.891Z,16.01
2018-10-06T00:25:19.053Z,16.02
2018-10-06T00:25:45.187Z,16.01
2018-10-06T00:26:11.349Z,16.08
2018-10-06T00:26:37.519Z,16.01
2018-10-06T00:27:03.653Z,16.01
2018-10-06T00:27:29.783Z,16.02
2018-10-06T00:27:55.942Z,15.98
2018-10-06T00:28:22.081Z,16.05
2018-10-06T00:28:48.221Z,16.05
2018-10-06T00:29:14.353Z,15.97
2018-10-06T00:29:40.481Z,15.97
2018-10-06T00:30:06.618Z,15.98
2018-10-06T00:30:32.754Z,15.98
2018-10-06T00:30:58.889Z,15.98
2018-10-06T00:31:25.044Z,15.92
2018-10-06T00:31:51.212Z,15.98
2018-10-06T00:32:17.354Z,15.98
2018-10-06T00:32:43.478Z,15.98
2018-10-06T00:33:09.622Z,15.98
2018-10-06T00:33:35.749Z,15.84
2018-10-06T00:34:01.895Z,15.83
2018-10-06T00:34:28.031Z,15.9
2018-10-06T00:34:54.177Z,15.84
2018-10-06T00:35:20.996Z,15.97
2018-10-06T00:35:47.126Z,15.92
2018-10-06T00:36:13.279Z,16
2018-10-06T00:36:39.444Z,15.92
2018-10-06T00:37:05.621Z,15.86
2018-10-06T00:37:31.757Z,15.86
2018-10-06T00:37:57.886Z,15.9
2018-10-06T00:38:24.025Z,15.92
2018-10-06T00:38:50.155Z,15.86
2018-10-06T00:39:16.290Z,15.86
2018-10-06T00:39:42.424Z,15.95
2018-10-06T00:40:09.261Z,15.97
2018-10-06T00:40:35.429Z,15.95
2018-10-06T00:41:01.568Z,16
2018-10-06T00:41:27.700Z,15.98
2018-10-06T00:41:53.837Z,16.04
2018-10-06T00:42:19.969Z,16.04
2018-10-06T00:42:46.103Z,15.95
2018-10-06T00:43:12.238Z,16
2018-10-06T00:43:38.398Z,16.05
2018-10-06T00:44:04.534Z,16.05
2018-10-06T00:44:30.670Z,16.04
2018-10-06T00:44:56.806Z,16.04
2018-10-06T00:45:22.943Z,16.01
2018-10-06T00:45:50.487Z,15.98
2018-10-06T00:46:16.624Z,15.83
2018-10-06T00:46:42.756Z,15.95
2018-10-06T00:47:08.910Z,15.84
2018-10-06T00:47:35.045Z,15.95
2018-10-06T00:48:01.179Z,15.86
2018-10-06T00:48:27.310Z,15.86
2018-10-06T00:48:53.444Z,15.92
2018-10-06T00:49:19.607Z,15.95
2018-10-06T00:49:45.739Z,15.86
2018-10-06T00:50:11.885Z,15.84
2018-10-06T00:50:38.049Z,15.84
2018-10-06T00:51:04.205Z,15.84
2018-10-06T00:51:30.393Z,15.9
2018-10-06T00:51:56.531Z,15.83
2018-10-06T00:52:22.688Z,15.84
2018-10-06T00:52:48.840Z,15.86
2018-10-06T00:53:14.963Z,15.84
2018-10-06T00:53:41.095Z,15.88
2018-10-06T00:54:07.238Z,15.83
2018-10-06T00:54:33.373Z,15.84
2018-10-06T00:54:59.534Z,15.82
2018-10-06T00:55:25.666Z,15.91
2018-10-06T00:55:51.794Z,15.82
2018-10-06T00:56:17.933Z,15.94
2018-10-06T00:56:44.077Z,15.95
2018-10-06T00:57:10.208Z,16
2018-10-06T00:57:36.339Z,15.98
2018-10-06T00:58:02.473Z,16.01
2018-10-06T00:58:28.626Z,16
2018-10-06T00:58:54.766Z,16.05
2018-10-06T00:59:20.914Z,16.08
2018-10-06T00:59:47.047Z,15.98
2018-10-06T01:00:13.184Z,16.09
2018-10-06T01:00:39.323Z,16.09
2018-10-06T01:01:05.461Z,16.13
2018-10-06T01:01:31.613Z,16.09
2018-10-06T01:01:57.765Z,16.15
2018-10-06T01:02:23.895Z,16.09
2018-10-06T01:02:50.027Z,16.08
2018-10-06T01:03:16.168Z,16.1
2018-10-06T01:03:42.315Z,16.16
2018-10-06T01:04:08.454Z,16.08
2018-10-06T01:04:34.613Z,16.05
2018-10-06T01:05:00.744Z,16.09
2018-10-06T01:05:26.939Z,16.12
2018-10-06T01:05:53.031Z,16.01
2018-10-06T01:06:19.190Z,16
2018-10-06T01:06:45.344Z,15.98
2018-10-06T01:07:11.479Z,16.09
2018-10-06T01:07:37.635Z,16.13
2018-10-06T01:08:03.761Z,16.16
2018-10-06T01:08:29.898Z,16.15
2018-10-06T01:08:56.027Z,16.16
2018-10-06T01:09:22.160Z,16.1
2018-10-06T01:09:48.287Z,16.16
2018-10-06T01:10:14.425Z,16.17
2018-10-06T01:10:40.587Z,16.2
2018-10-06T01:11:06.722Z,16.2
2018-10-06T01:11:32.857Z,16.29
2018-10-06T01:11:58.986Z,16.24
2018-10-06T01:12:25.167Z,16.24
2018-10-06T01:12:51.303Z,16.29
2018-10-06T01:13:17.437Z,16.32
2018-10-06T01:13:43.567Z,16.36
2018-10-06T01:14:09.729Z,16.33
2018-10-06T01:14:35.884Z,16.29
2018-10-06T01:15:02.015Z,16.16
2018-10-06T01:15:28.148Z,16.28
2018-10-06T01:15:54.287Z,16.29
2018-10-06T01:16:20.415Z,16.13
2018-10-06T01:16:46.547Z,16.21
2018-10-06T01:17:12.679Z,16.12
2018-10-06T01:17:38.819Z,16.1
2018-10-06T01:18:04.947Z,16.21
2018-10-06T01:18:31.074Z,16.16
2018-10-06T01:18:57.211Z,16.21
2018-10-06T01:19:23.351Z,16.23
2018-10-06T01:19:49.481Z,16.24
2018-10-06T01:20:15.634Z,16.29
2018-10-06T01:20:41.774Z,16.26
2018-10-06T01:21:07.895Z,16.31
2018-10-06T01:21:34.035Z,16.24
2018-10-06T01:22:00.157Z,16.26
2018-10-06T01:22:26.322Z,16.26
2018-10-06T01:22:52.479Z,16.32
2018-10-06T01:23:18.609Z,16.28
2018-10-06T01:23:44.742Z,16.29
2018-10-06T01:24:10.875Z,16.2
2018-10-06T01:24:37.007Z,16.29
2018-10-06T01:25:03.141Z,16.31
2018-10-06T01:25:29.278Z,16.28
2018-10-06T01:25:55.415Z,16.24
2018-10-06T01:26:21.576Z,16.24
2018-10-06T01:26:47.726Z,16.28
2018-10-06T01:27:13.861Z,16.2
2018-10-06T01:27:39.997Z,16.16
2018-10-06T01:28:06.131Z,16.15
2018-10-06T01:28:32.266Z,16.16
2018-10-06T01:28:58.397Z,16.15
2018-10-06T01:29:24.526Z,16.23
2018-10-06T01:29:50.660Z,16.16
2018-10-06T01:30:16.793Z,16.16
2018-10-06T01:30:42.919Z,16.2
2018-10-06T01:31:09.055Z,16.15
2018-10-06T01:31:35.186Z,16.16
2018-10-06T01:32:01.323Z,16.12
2018-10-06T01:32:27.477Z,16.15
2018-10-06T01:32:53.626Z,16.17
2018-10-06T01:33:19.769Z,16.15
2018-10-06T01:33:45.892Z,16.28
2018-10-06T01:34:12.032Z,16.12
2018-10-06T01:34:38.163Z,16.16
2018-10-06T01:35:04.326Z,16.15
2018-10-06T01:35:30.463Z,16.12
2018-10-06T01:35:56.622Z,16.15
2018-10-06T01:36:22.753Z,16.12
2018-10-06T01:36:48.932Z,16.12
2018-10-06T01:37:15.069Z,16.16
2018-10-06T01:37:41.224Z,16.09
2018-10-06T01:38:07.356Z,16.09
2018-10-06T01:38:33.495Z,16.12
2018-10-06T01:38:59.628Z,16.15
2018-10-06T01:39:25.785Z,16.1
2018-10-06T01:39:51.924Z,16.12
2018-10-06T01:40:18.061Z,16.15
2018-10-06T01:40:44.193Z,16.05
2018-10-06T01:41:10.324Z,16.13
2018-10-06T01:41:36.485Z,16.17
2018-10-06T01:42:02.617Z,16.1
2018-10-06T01:42:28.774Z,16.12
2018-10-06T01:42:54.908Z,16.09
2018-10-06T01:43:21.045Z,16.16
2018-10-06T01:43:47.175Z,16.08
2018-10-06T01:44:13.313Z,16.12
2018-10-06T01:44:39.444Z,16.16
2018-10-06T01:45:05.605Z,16.12
2018-10-06T01:45:31.758Z,16.15
2018-10-06T01:45:57.896Z,16.13
2018-10-06T01:46:24.026Z,16.04
2018-10-06T01:46:50.160Z,16
2018-10-06T01:47:16.291Z,16.04
2018-10-06T01:47:42.431Z,16.02
2018-10-06T01:48:08.590Z,15.98
2018-10-06T01:48:34.723Z,16.01
2018-10-06T01:49:00.858Z,16.04
2018-10-06T01:49:26.990Z,15.95
2018-10-06T01:49:53.192Z,15.97
2018-10-06T01:50:19.258Z,15.97
2018-10-06T01:50:45.395Z,15.97
2018-10-06T01:51:11.607Z,16.01
2018-10-06T01:51:37.688Z,15.98
2018-10-06T01:52:03.822Z,15.95
2018-10-06T01:52:29.983Z,15.86
2018-10-06T01:52:56.114Z,15.84
2018-10-06T01:53:22.271Z,15.82
2018-10-06T01:53:48.407Z,15.86
2018-10-06T01:54:14.536Z,15.79
2018-10-06T01:54:40.717Z,15.8
2018-10-06T01:55:06.868Z,15.84
2018-10-06T01:55:33.003Z,15.9
2018-10-06T01:55:59.141Z,15.8
2018-10-06T01:56:25.271Z,15.88
2018-10-06T01:56:51.428Z,15.86
2018-10-06T01:57:17.581Z,15.77
2018-10-06T01:57:43.748Z,15.94
2018-10-06T01:58:09.877Z,15.8
2018-10-06T01:58:36.012Z,15.82
2018-10-06T01:59:02.170Z,15.82
2018-10-06T01:59:28.302Z,15.83
2018-10-06T01:59:54.427Z,15.86
2018-10-06T02:00:20.557Z,15.84
2018-10-06T02:00:46.713Z,15.79
2018-10-06T02:01:12.894Z,15.76
2018-10-06T02:01:39.025Z,15.86
2018-10-06T02:02:05.156Z,15.91
2018-10-06T02:02:31.298Z,15.88
2018-10-06T02:02:57.428Z,15.75
2018-10-06T02:03:23.561Z,15.73
2018-10-06T02:03:49.691Z,15.82
2018-10-06T02:04:15.842Z,15.79
2018-10-06T02:04:41.978Z,15.82
2018-10-06T02:05:08.109Z,15.84
2018-10-06T02:05:34.268Z,15.9
2018-10-06T02:06:00.406Z,15.9
2018-10-06T02:06:26.541Z,15.94
2018-10-06T02:06:52.676Z,15.98
2018-10-06T02:07:18.812Z,15.9
2018-10-06T02:07:44.967Z,15.82
2018-10-06T02:08:11.144Z,15.84
2018-10-06T02:08:37.293Z,15.77
2018-10-06T02:09:03.428Z,15.9
2018-10-06T02:09:29.552Z,15.79
2018-10-06T02:09:55.680Z,15.86
2018-10-06T02:10:21.814Z,15.75
2018-10-06T02:10:47.950Z,15.82
2018-10-06T02:11:14.087Z,15.7
2018-10-06T02:11:40.215Z,15.72
2018-10-06T02:12:06.378Z,15.65
2018-10-06T02:12:32.510Z,15.73
2018-10-06T02:12:58.647Z,15.73
2018-10-06T02:13:24.808Z,15.65
2018-10-06T02:13:50.936Z,15.64
2018-10-06T02:14:17.072Z,15.58
2018-10-06T02:14:43.250Z,15.64
2018-10-06T02:15:09.385Z,15.55
2018-10-06T02:15:35.538Z,15.49
2018-10-06T02:16:01.705Z,15.52
2018-10-06T02:16:27.836Z,15.51
2018-10-06T02:16:53.997Z,15.54
2018-10-06T02:17:20.148Z,15.47
2018-10-06T02:17:46.277Z,15.37
2018-10-06T02:18:12.407Z,15.37
2018-10-06T02:18:38.545Z,15.47
2018-10-06T02:19:04.693Z,15.54
2018-10-06T02:19:30.851Z,15.42
2018-10-06T02:19:57.001Z,15.52
2018-10-06T02:20:23.139Z,15.42
2018-10-06T02:20:49.271Z,15.47
2018-10-06T02:21:15.421Z,15.49
2018-10-06T02:21:41.584Z,15.47
2018-10-06T02:22:07.718Z,15.42
2018-10-06T02:22:33.848Z,15.44
2018-10-06T02:22:59.981Z,15.43
2018-10-06T02:23:26.111Z,15.33
2018-10-06T02:23:52.247Z,15.42
2018-10-06T02:24:18.379Z,15.35
2018-10-06T02:24:44.543Z,15.31
2018-10-06T02:25:10.677Z,15.35
2018-10-06T02:25:36.824Z,15.39
2018-10-06T02:26:02.963Z,15.33
2018-10-06T02:26:29.098Z,15.4
2018-10-06T02:26:55.223Z,15.36
2018-10-06T02:27:21.379Z,15.39
2018-10-06T02:27:47.519Z,15.36
2018-10-06T02:28:13.649Z,15.28
2018-10-06T02:28:39.783Z,15.37
2018-10-06T02:29:05.925Z,15.44
2018-10-06T02:29:32.059Z,15.43
2018-10-06T02:29:58.226Z,15.36
2018-10-06T02:30:24.375Z,15.37
2018-10-06T02:30:50.514Z,15.42
2018-10-06T02:31:16.640Z,15.4
2018-10-06T02:31:42.785Z,15.46
2018-10-06T02:32:08.935Z,15.44
2018-10-06T02:32:35.112Z,15.44
2018-10-06T02:33:01.247Z,15.4
2018-10-06T02:33:27.442Z,15.37
2018-10-06T02:33:53.574Z,15.42
2018-10-06T02:34:19.761Z,15.39
2018-10-06T02:34:45.841Z,15.39
2018-10-06T02:35:11.974Z,15.35
2018-10-06T02:35:38.111Z,15.36
2018-10-06T02:36:04.245Z,15.36
2018-10-06T02:36:30.374Z,15.36
2018-10-06T02:36:56.630Z,15.37
2018-10-06T02:37:22.674Z,15.36
2018-10-06T02:37:48.808Z,15.39
2018-10-06T02:38:14.939Z,15.46
2018-10-06T02:38:41.098Z,15.43
2018-10-06T02:39:07.303Z,15.42
2018-10-06T02:39:33.406Z,15.42
2018-10-06T02:39:59.537Z,15.36
2018-10-06T02:40:25.674Z,15.39
2018-10-06T02:40:51.809Z,15.42
2018-10-06T02:41:17.968Z,15.46
2018-10-06T02:41:44.098Z,15.46
2018-10-06T02:42:10.247Z,15.4
2018-10-06T02:42:36.382Z,15.47
2018-10-06T02:43:02.545Z,15.44
2018-10-06T02:43:28.676Z,15.44
2018-10-06T02:43:54.835Z,15.54
2018-10-06T02:44:20.969Z,15.55
2018-10-06T02:44:47.106Z,15.4
2018-10-06T02:45:13.264Z,15.51
2018-10-06T02:45:39.398Z,15.47
2018-10-06T02:46:05.554Z,15.4
2018-10-06T02:46:31.691Z,15.52
2018-10-06T02:46:57.843Z,15.54
2018-10-06T02:47:23.971Z,15.49
2018-10-06T02:47:50.113Z,15.52
2018-10-06T02:48:16.236Z,15.47
2018-10-06T02:48:42.381Z,15.46
2018-10-06T02:49:08.518Z,15.46
2018-10-06T02:49:34.646Z,15.52
2018-10-06T02:50:00.802Z,15.51
2018-10-06T02:50:26.933Z,15.52
2018-10-06T02:50:53.091Z,15.52
2018-10-06T02:51:19.231Z,15.51
2018-10-06T02:51:45.392Z,15.43
2018-10-06T02:52:11.526Z,15.54
2018-10-06T02:52:37.656Z,15.54
2018-10-06T02:53:03.786Z,15.55
2018-10-06T02:53:29.918Z,15.58
2018-10-06T02:53:56.053Z,15.43
2018-10-06T02:54:22.187Z,15.49
2018-10-06T02:54:48.340Z,15.54
2018-10-06T02:55:14.516Z,15.46
2018-10-06T02:55:40.640Z,15.54
2018-10-06T02:56:06.771Z,15.35
2018-10-06T02:56:32.910Z,15.47
2018-10-06T02:56:59.057Z,15.43
2018-10-06T02:57:25.241Z,15.44
2018-10-06T02:57:51.375Z,15.44
2018-10-06T02:58:17.507Z,15.39
2018-10-06T02:58:43.649Z,15.47
2018-10-06T02:59:09.779Z,15.47
2018-10-06T02:59:35.916Z,15.43
2018-10-06T03:00:02.068Z,15.4
2018-10-06T03:00:28.200Z,15.44
2018-10-06T03:00:54.376Z,15.44
2018-10-06T03:01:20.536Z,15.44
2018-10-06T03:01:46.664Z,15.52
2018-10-06T03:02:12.826Z,15.49
2018-10-06T03:02:38.979Z,15.47
2018-10-06T03:03:05.134Z,15.47
2018-10-06T03:03:31.252Z,15.46
2018-10-06T03:03:57.385Z,15.39
2018-10-06T03:04:23.514Z,15.37
2018-10-06T03:04:49.644Z,15.44
2018-10-06T03:05:15.780Z,15.46
2018-10-06T03:05:41.913Z,15.44
2018-10-06T03:06:08.046Z,15.44
2018-10-06T03:06:34.219Z,15.4
2018-10-06T03:07:00.358Z,15.46
2018-10-06T03:07:26.485Z,15.52
2018-10-06T03:07:52.621Z,15.44
2018-10-06T03:08:18.756Z,15.52
2018-10-06T03:08:44.892Z,15.46
2018-10-06T03:09:11.032Z,15.46
2018-10-06T03:09:37.187Z,15.51
2018-10-06T03:10:03.342Z,15.49
2018-10-06T03:10:29.473Z,15.46
2018-10-06T03:10:55.605Z,15.44
2018-10-06T03:11:21.758Z,15.39
2018-10-06T03:11:47.921Z,15.43
2018-10-06T03:12:14.056Z,15.47
2018-10-06T03:12:40.210Z,15.43
2018-10-06T03:13:06.343Z,15.42
2018-10-06T03:13:32.483Z,15.35
2018-10-06T03:13:58.612Z,15.36
2018-10-06T03:14:24.768Z,15.44
2018-10-06T03:14:50.926Z,15.28
2018-10-06T03:15:17.061Z,15.33
2018-10-06T03:15:43.202Z,15.33
2018-10-06T03:16:09.368Z,15.31
2018-10-06T03:16:35.518Z,15.37
2018-10-06T03:17:01.671Z,15.29
2018-10-06T03:17:27.840Z,15.27
2018-10-06T03:17:53.974Z,15.35
2018-10-06T03:18:20.105Z,15.27
2018-10-06T03:18:46.236Z,15.31
2018-10-06T03:19:12.369Z,15.28
2018-10-06T03:19:38.514Z,15.27
2018-10-06T03:20:04.635Z,15.27
2018-10-06T03:20:30.765Z,15.25
2018-10-06T03:20:56.921Z,15.17
2018-10-06T03:21:23.078Z,15.17
2018-10-06T03:21:49.231Z,15.21
2018-10-06T03:22:15.368Z,15.28
2018-10-06T03:22:41.496Z,15.29
2018-10-06T03:23:07.636Z,15.28
2018-10-06T03:23:33.785Z,15.31
2018-10-06T03:23:59.912Z,15.31
2018-10-06T03:24:26.061Z,15.27
2018-10-06T03:24:52.238Z,15.29
2018-10-06T03:25:18.376Z,15.33
2018-10-06T03:25:44.508Z,15.28
2018-10-06T03:26:10.644Z,15.28
2018-10-06T03:26:36.797Z,15.27
2018-10-06T03:27:02.953Z,15.27
2018-10-06T03:27:29.082Z,15.28
2018-10-06T03:27:55.262Z,15.27
2018-10-06T03:28:21.397Z,15.28
2018-10-06T03:28:47.524Z,15.31
2018-10-06T03:29:13.659Z,15.24
2018-10-06T03:29:39.808Z,15.28
2018-10-06T03:30:05.943Z,15.33
2018-10-06T03:30:32.149Z,15.25
2018-10-06T03:30:58.330Z,15.29
2018-10-06T03:31:24.500Z,15.36
2018-10-06T03:31:50.652Z,15.37
2018-10-06T03:32:16.803Z,15.27
2018-10-06T03:32:42.966Z,15.36
2018-10-06T03:33:09.097Z,15.4
2018-10-06T03:33:35.232Z,15.33
2018-10-06T03:34:01.392Z,15.33
2018-10-06T03:34:27.527Z,15.29
2018-10-06T03:34:53.658Z,15.24
2018-10-06T03:35:19.791Z,15.24
2018-10-06T03:35:45.923Z,15.21
2018-10-06T03:36:12.051Z,15.29
2018-10-06T03:36:38.234Z,15.24
2018-10-06T03:37:04.393Z,15.28
2018-10-06T03:37:30.526Z,15.28
2018-10-06T03:37:56.684Z,15.15
2018-10-06T03:38:22.822Z,15.21
2018-10-06T03:38:48.962Z,15.19
2018-10-06T03:39:15.119Z,15.21
2018-10-06T03:39:41.255Z,15.18
2018-10-06T03:40:07.408Z,15.11
2018-10-06T03:40:33.604Z,15.07
2018-10-06T03:40:59.739Z,15
2018-10-06T03:41:25.873Z,14.96
2018-10-06T03:41:52.011Z,15.03
2018-10-06T03:42:18.191Z,14.99
2018-10-06T03:42:44.328Z,14.99
2018-10-06T03:43:10.461Z,14.97
2018-10-06T03:43:36.591Z,15.03
2018-10-06T03:44:02.777Z,14.97
2018-10-06T03:44:28.913Z,14.94
2018-10-06T03:44:55.050Z,14.97
2018-10-06T03:45:21.170Z,14.97
2018-10-06T03:45:47.305Z,14.94
2018-10-06T03:46:13.464Z,15
2018-10-06T03:46:39.610Z,14.99
2018-10-06T03:47:05.790Z,14.99
2018-10-06T03:47:31.921Z,15.04
2018-10-06T03:47:58.076Z,15.04
2018-10-06T03:48:24.207Z,15.04
2018-10-06T03:48:50.337Z,14.99
2018-10-06T03:49:16.472Z,15.02
2018-10-06T03:49:42.597Z,14.96
2018-10-06T03:50:08.757Z,14.96
2018-10-06T03:50:34.913Z,14.94
2018-10-06T03:51:01.035Z,14.96
2018-10-06T03:51:27.166Z,14.88
2018-10-06T03:51:53.297Z,14.86
2018-10-06T03:52:19.457Z,14.99
2018-10-06T03:52:45.587Z,14.86
2018-10-06T03:53:11.747Z,14.82
2018-10-06T03:53:37.900Z,14.81
2018-10-06T03:54:04.115Z,14.82
2018-10-06T03:54:30.183Z,14.82
2018-10-06T03:54:56.345Z,14.85
2018-10-06T03:55:22.475Z,14.7
2018-10-06T03:55:48.608Z,14.82
2018-10-06T03:56:14.764Z,14.84
2018-10-06T03:56:40.906Z,14.69
2018-10-06T03:57:07.131Z,14.68
2018-10-06T03:57:33.258Z,14.79
2018-10-06T03:57:59.389Z,14.72
2018-10-06T03:58:25.551Z,14.65
2018-10-06T03:58:51.682Z,14.7
2018-10-06T03:59:17.854Z,14.7
2018-10-06T03:59:43.994Z,14.66
2018-10-06T04:00:10.124Z,14.72
2018-10-06T04:00:36.255Z,14.7
2018-10-06T04:01:02.409Z,14.65
2018-10-06T04:01:28.546Z,14.69
2018-10-06T04:01:54.680Z,14.65
2018-10-06T04:02:20.818Z,14.68
2018-10-06T04:02:46.950Z,14.6
2018-10-06T04:03:13.134Z,14.65
2018-10-06T04:03:39.281Z,14.66
2018-10-06T04:04:05.421Z,14.65
2018-10-06T04:04:31.592Z,14.66
2018-10-06T04:04:57.719Z,14.62
2018-10-06T04:05:23.906Z,14.63
2018-10-06T04:05:50.038Z,14.54
2018-10-06T04:06:16.190Z,14.5
2018-10-06T04:06:42.322Z,14.51
2018-10-06T04:07:08.479Z,14.48
2018-10-06T04:07:34.622Z,14.51
2018-10-06T04:08:00.783Z,14.59
2018-10-06T04:08:26.935Z,14.55
2018-10-06T04:08:53.065Z,14.5
2018-10-06T04:09:19.201Z,14.51
2018-10-06T04:09:45.330Z,14.55
2018-10-06T04:10:11.527Z,14.54
2018-10-06T04:10:37.639Z,14.59
2018-10-06T04:11:03.775Z,14.55
2018-10-06T04:11:29.901Z,14.6
2018-10-06T04:11:56.033Z,14.55
2018-10-06T04:12:22.197Z,14.63
2018-10-06T04:12:48.327Z,14.55
2018-10-06T04:13:14.456Z,14.55
2018-10-06T04:13:40.591Z,14.54
2018-10-06T04:14:06.723Z,14.6
2018-10-06T04:14:32.880Z,14.68
2018-10-06T04:14:59.036Z,14.59
2018-10-06T04:15:25.170Z,14.6
2018-10-06T04:15:51.345Z,14.65
2018-10-06T04:16:17.521Z,14.69
2018-10-06T04:16:43.656Z,14.63
2018-10-06T04:17:09.782Z,14.68
2018-10-06T04:17:35.938Z,14.69
2018-10-06T04:18:02.074Z,14.63
2018-10-06T04:18:28.230Z,14.77
2018-10-06T04:18:54.413Z,14.69
2018-10-06T04:19:20.566Z,14.72
2018-10-06T04:19:46.728Z,14.73
2018-10-06T04:20:12.868Z,14.73
2018-10-06T04:20:39.000Z,14.73
2018-10-06T04:21:05.137Z,14.66
2018-10-06T04:21:31.271Z,14.66
2018-10-06T04:21:57.424Z,14.77
2018-10-06T04:22:23.554Z,14.66
2018-10-06T04:22:49.729Z,14.65
2018-10-06T04:23:15.855Z,14.66
2018-10-06T04:23:42.007Z,14.68
2018-10-06T04:24:08.139Z,14.66
2018-10-06T04:24:34.287Z,14.69
2018-10-06T04:25:00.424Z,14.65
2018-10-06T04:25:26.556Z,14.66
2018-10-06T04:25:52.683Z,14.59
2018-10-06T04:26:18.839Z,14.59
2018-10-06T04:26:44.970Z,14.59
2018-10-06T04:27:11.108Z,14.63
2018-10-06T04:27:37.242Z,14.62
2018-10-06T04:28:03.372Z,14.65
2018-10-06T04:28:29.571Z,14.65
2018-10-06T04:28:55.717Z,14.59
2018-10-06T04:29:21.846Z,14.55
2018-10-06T04:29:47.985Z,14.45
2018-10-06T04:30:14.113Z,14.45
2018-10-06T04:30:40.256Z,14.5
2018-10-06T04:31:06.393Z,14.47
2018-10-06T04:31:32.550Z,14.44
2018-10-06T04:31:58.681Z,14.37
2018-10-06T04:32:24.859Z,14.35
2018-10-06T04:32:51.033Z,14.33
2018-10-06T04:33:17.168Z,14.43
2018-10-06T04:33:43.348Z,14.4
2018-10-06T04:34:09.505Z,14.36
2018-10-06T04:34:35.643Z,14.37
2018-10-06T04:35:01.773Z,14.37
2018-10-06T04:35:27.941Z,14.37
2018-10-06T04:35:54.080Z,14.36
2018-10-06T04:36:20.218Z,14.35
2018-10-06T04:36:46.345Z,14.26
2018-10-06T04:37:12.484Z,14.17
2018-10-06T04:37:38.616Z,14.14
2018-10-06T04:38:04.746Z,14.23
2018-10-06T04:38:30.887Z,14.28
2018-10-06T04:38:57.024Z,14.23
2018-10-06T04:39:23.157Z,14.26
2018-10-06T04:39:49.308Z,14.15
2018-10-06T04:40:15.495Z,14.23
2018-10-06T04:40:41.649Z,14.25
2018-10-06T04:41:07.785Z,14.17
2018-10-06T04:41:33.918Z,14.1
2018-10-06T04:42:00.078Z,14.23
2018-10-06T04:42:26.211Z,14.11
2018-10-06T04:42:52.333Z,14.15
2018-10-06T04:43:18.465Z,14.08
2018-10-06T04:43:44.597Z,14.1
2018-10-06T04:44:10.751Z,14.11
2018-10-06T04:44:36.877Z,13.97
2018-10-06T04:45:03.064Z,14.11
2018-10-06T04:45:29.198Z,14.14
2018-10-06T04:45:55.372Z,14.12
2018-10-06T04:46:21.497Z,14.12
2018-10-06T04:46:47.628Z,14.1
2018-10-06T04:47:13.785Z,14.17
2018-10-06T04:47:39.923Z,14.22
2018-10-06T04:48:06.056Z,14.15
2018-10-06T04:48:32.187Z,14.15
2018-10-06T04:48:58.352Z,14.26
2018-10-06T04:49:24.511Z,14.28
2018-10-06T04:49:50.650Z,14.23
2018-10-06T04:50:16.802Z,14.26
2018-10-06T04:50:42.939Z,14.26
2018-10-06T04:51:09.101Z,14.18
2018-10-06T04:51:35.226Z,14.2
2018-10-06T04:52:01.383Z,14.22
2018-10-06T04:52:27.571Z,14.22
2018-10-06T04:52:53.699Z,14.2
2018-10-06T04:53:19.945Z,14.23
2018-10-06T04:53:45.990Z,14.28
2018-10-06T04:54:12.123Z,14.26
2018-10-06T04:54:38.298Z,14.23
2018-10-06T04:55:04.455Z,14.15
2018-10-06T04:55:30.628Z,14.23
2018-10-06T04:55:56.790Z,14.15
2018-10-06T04:56:22.997Z,14.17
2018-10-06T04:56:49.152Z,14.14
2018-10-06T04:57:15.297Z,14.17
2018-10-06T04:57:41.461Z,14.17
2018-10-06T04:58:07.625Z,14.14
2018-10-06T04:58:33.775Z,14.12
2018-10-06T04:58:59.931Z,14.14
2018-10-06T04:59:26.066Z,14.2
2018-10-06T04:59:52.200Z,14.22
2018-10-06T05:00:18.363Z,14.2
2018-10-06T05:00:44.491Z,14.23
2018-10-06T05:01:10.664Z,14.1
2018-10-06T05:01:36.827Z,14.08
2018-10-06T05:02:02.955Z,14.12
2018-10-06T05:02:29.082Z,14.08
2018-10-06T05:02:55.234Z,14.18
2018-10-06T05:03:21.432Z,14.12
2018-10-06T05:03:47.603Z,14.11
2018-10-06T05:04:13.727Z,14.07
2018-10-06T05:04:39.861Z,14.1
2018-10-06T05:05:06.014Z,14.17
2018-10-06T05:05:32.172Z,14.2
2018-10-06T05:05:58.304Z,14.17
2018-10-06T05:06:24.466Z,14.18
2018-10-06T05:06:50.642Z,14.08
2018-10-06T05:07:16.796Z,14.15
2018-10-06T05:07:42.933Z,14.1
2018-10-06T05:08:09.088Z,14.18
2018-10-06T05:08:35.225Z,14.14
2018-10-06T05:09:01.403Z,14.12
2018-10-06T05:09:27.566Z,14.11
2018-10-06T05:09:53.698Z,14.12
2018-10-06T05:10:19.827Z,14.1
2018-10-06T05:10:45.968Z,14.08
2018-10-06T05:11:12.112Z,13.97
2018-10-06T05:11:38.276Z,13.99
2018-10-06T05:12:04.438Z,14
2018-10-06T05:12:30.597Z,13.96
2018-10-06T05:12:56.730Z,13.99
2018-10-06T05:13:22.883Z,13.99
2018-10-06T05:13:49.070Z,13.95
2018-10-06T05:14:15.230Z,14
2018-10-06T05:14:41.366Z,13.86
2018-10-06T05:15:07.523Z,13.92
2018-10-06T05:15:33.693Z,13.86
2018-10-06T05:15:59.816Z,13.92
2018-10-06T05:16:25.965Z,13.86
2018-10-06T05:16:52.084Z,13.83
2018-10-06T05:17:18.217Z,13.9
2018-10-06T05:17:44.374Z,13.93
2018-10-06T05:18:10.506Z,13.89
2018-10-06T05:18:36.639Z,13.89
2018-10-06T05:19:02.774Z,13.86
2018-10-06T05:19:28.919Z,13.81
2018-10-06T05:19:55.103Z,13.85
2018-10-06T05:20:21.232Z,13.87
2018-10-06T05:20:47.362Z,13.9
2018-10-06T05:21:13.520Z,13.93
2018-10-06T05:21:39.669Z,13.83
2018-10-06T05:22:05.829Z,13.95
2018-10-06T05:22:31.992Z,13.86
2018-10-06T05:22:58.122Z,13.97
2018-10-06T05:23:24.312Z,13.93
2018-10-06T05:23:50.419Z,13.96
2018-10-06T05:24:16.553Z,13.9
2018-10-06T05:24:42.708Z,13.89
2018-10-06T05:25:08.848Z,13.89
2018-10-06T05:25:35.007Z,13.87
2018-10-06T05:26:01.167Z,13.92
2018-10-06T05:26:27.294Z,13.99
2018-10-06T05:26:53.452Z,13.99
2018-10-06T05:27:19.585Z,14
2018-10-06T05:27:45.719Z,14.03
2018-10-06T05:28:11.866Z,14.04
2018-10-06T05:28:37.998Z,14.03
2018-10-06T05:29:04.153Z,14
2018-10-06T05:29:30.287Z,14.11
2018-10-06T05:29:56.442Z,14.07
2018-10-06T05:30:22.597Z,13.99
2018-10-06T05:30:48.730Z,14.08
2018-10-06T05:31:14.885Z,13.97
2018-10-06T05:31:41.019Z,14
2018-10-06T05:32:07.174Z,14.07
2018-10-06T05:32:33.348Z,13.99
2018-10-06T05:32:59.527Z,14
2018-10-06T05:33:25.708Z,13.96
2018-10-06T05:33:51.888Z,13.95
2018-10-06T05:34:18.019Z,13.97
2018-10-06T05:34:44.165Z,14
2018-10-06T05:35:10.320Z,14.03
2018-10-06T05:35:36.455Z,13.99
2018-10-06T05:36:02.585Z,14
2018-10-06T05:36:28.745Z,14.14
2018-10-06T05:36:54.873Z,14.11
2018-10-06T05:37:21.004Z,14.11
2018-10-06T05:37:47.137Z,14.23
2018-10-06T05:38:13.268Z,14.12